createdAt,value
2017-12-13T00:01:38.296Z,100576.19
2017-12-13T00:04:05.118Z,100576.81
2017-12-13T00:06:31.969Z,100580.22
2017-12-13T00:08:58.718Z,100570.20
2017-12-13T00:11:26.233Z,100569.95
2017-12-13T00:13:53.049Z,100567.88
2017-12-13T00:16:20.673Z,100569.56
2017-12-13T00:18:47.557Z,100569.22
2017-12-13T00:21:14.373Z,100559.34
2017-12-13T00:23:41.186Z,100559.41
2017-12-13T00:26:08.001Z,100551.80
2017-12-13T00:28:34.785Z,100554.84
2017-12-13T00:31:01.588Z,100549.63
2017-12-13T00:33:28.346Z,100547.84
2017-12-13T00:35:55.086Z,100541.16
2017-12-13T00:38:22.209Z,100545.80
2017-12-13T00:40:51.002Z,100541.89
2017-12-13T00:43:17.935Z,100530.67
2017-12-13T00:45:45.609Z,100535.32
2017-12-13T00:48:13.801Z,100529.59
2017-12-13T00:50:43.881Z,100533.03
2017-12-13T00:53:12.890Z,100532.46
2017-12-13T00:55:40.697Z,100531.11
2017-12-13T00:58:07.513Z,100531.89
2017-12-13T01:00:35.062Z,100519.16
2017-12-13T01:03:01.799Z,100520.30
2017-12-13T01:05:28.653Z,100525.81
2017-12-13T01:07:55.822Z,100517.51
2017-12-13T01:10:22.755Z,100525.94
2017-12-13T01:12:49.570Z,100516.30
2017-12-13T01:15:16.380Z,100516.69
2017-12-13T01:17:43.154Z,100512.51
2017-12-13T01:20:09.974Z,100510.83
2017-12-13T01:22:36.752Z,100504.39
2017-12-13T01:25:04.288Z,100504.91
2017-12-13T01:27:31.063Z,100507.73
2017-12-13T01:29:57.862Z,100505.30
2017-12-13T01:32:24.631Z,100503.43
2017-12-13T01:34:51.394Z,100506.91
2017-12-13T01:37:18.188Z,100499.39
2017-12-13T01:39:44.981Z,100495.70
2017-12-13T01:42:12.492Z,100498.64
2017-12-13T01:44:39.281Z,100501.61
2017-12-13T01:47:06.052Z,100488.95
2017-12-13T01:49:32.851Z,100493.69
2017-12-13T01:51:59.666Z,100490.64
2017-12-13T01:54:26.469Z,100486.31
2017-12-13T01:56:53.973Z,100484.61
2017-12-13T01:59:20.785Z,100473.01
2017-12-13T02:01:47.566Z,100475.41
2017-12-13T02:04:15.104Z,100464.31
2017-12-13T02:06:41.873Z,100458.67
2017-12-13T02:09:08.688Z,100458.33
2017-12-13T02:11:35.496Z,100437.52
2017-12-13T02:14:02.330Z,100431.17
2017-12-13T02:16:29.101Z,100425.05
2017-12-13T02:18:55.890Z,100422.88
2017-12-13T02:21:23.452Z,100429.17
2017-12-13T02:23:50.262Z,100419.54
2017-12-13T02:26:17.065Z,100419.66
2017-12-13T02:28:43.810Z,100420.91
2017-12-13T02:31:10.570Z,100415.67
2017-12-13T02:33:37.352Z,100413.41
2017-12-13T02:36:04.102Z,100411.62
2017-12-13T02:38:30.882Z,100413.98
2017-12-13T02:41:01.454Z,100408.20
2017-12-13T02:43:28.245Z,100402.47
2017-12-13T02:45:55.017Z,100394.34
2017-12-13T02:48:21.794Z,100390.05
2017-12-13T02:50:48.584Z,100386.44
2017-12-13T02:53:16.196Z,100380.45
2017-12-13T02:55:43.087Z,100371.84
2017-12-13T02:58:09.909Z,100378.61
2017-12-13T03:00:36.725Z,100372.91
2017-12-13T03:03:03.555Z,100364.84
2017-12-13T03:05:30.388Z,100367.16
2017-12-13T03:07:57.183Z,100363.45
2017-12-13T03:10:23.985Z,100358.03
2017-12-13T03:12:51.519Z,100351.05
2017-12-13T03:15:18.332Z,100349.74
2017-12-13T03:17:45.162Z,100347.47
2017-12-13T03:20:11.946Z,100341.05
2017-12-13T03:22:39.511Z,100336.80
2017-12-13T03:25:07.045Z,100325.70
2017-12-13T03:27:33.778Z,100330.10
2017-12-13T03:30:00.573Z,100328.75
2017-12-13T03:32:27.370Z,100324.65
2017-12-13T03:34:54.909Z,100323.34
2017-12-13T03:37:21.653Z,100312.23
2017-12-13T03:39:48.454Z,100308.14
2017-12-13T03:42:15.214Z,100314.46
2017-12-13T03:44:42.725Z,100306.55
2017-12-13T03:47:09.471Z,100301.44
2017-12-13T03:49:36.265Z,100306.12
2017-12-13T03:52:03.024Z,100292.66
2017-12-13T03:54:29.766Z,100283.00
2017-12-13T03:56:56.521Z,100288.35
2017-12-13T03:59:23.268Z,100285.42
2017-12-13T04:01:50.046Z,100277.39
2017-12-13T04:04:16.872Z,100271.45
2017-12-13T04:06:44.401Z,100263.07
2017-12-13T04:09:11.192Z,100267.51
2017-12-13T04:11:38.011Z,100255.67
2017-12-13T04:14:04.820Z,100257.94
2017-12-13T04:16:31.579Z,100254.03
2017-12-13T04:18:58.410Z,100250.41
2017-12-13T04:21:25.161Z,100247.18
2017-12-13T04:23:51.933Z,100247.86
2017-12-13T04:26:18.699Z,100238.02
2017-12-13T04:28:45.474Z,100237.92
2017-12-13T04:31:12.250Z,100229.18
2017-12-13T04:33:39.789Z,100223.44
2017-12-13T04:36:06.539Z,100214.61
2017-12-13T04:38:33.338Z,100215.38
2017-12-13T04:41:00.102Z,100213.20
2017-12-13T04:43:27.611Z,100209.34
2017-12-13T04:45:54.395Z,100208.42
2017-12-13T04:48:21.165Z,100191.34
2017-12-13T04:50:47.934Z,100188.36
2017-12-13T04:53:14.709Z,100196.13
2017-12-13T04:55:41.484Z,100195.30
2017-12-13T04:58:08.989Z,100181.84
2017-12-13T05:00:35.812Z,100179.56
2017-12-13T05:03:03.333Z,100180.24
2017-12-13T05:05:30.082Z,100186.41
2017-12-13T05:07:56.881Z,100174.34
2017-12-13T05:10:23.694Z,100175.41
2017-12-13T05:12:50.543Z,100161.89
2017-12-13T05:15:17.359Z,100169.91
2017-12-13T05:17:44.156Z,100158.22
2017-12-13T05:20:11.691Z,100147.45
2017-12-13T05:22:38.477Z,100145.02
2017-12-13T05:25:05.290Z,100144.09
2017-12-13T05:27:32.064Z,100141.16
2017-12-13T05:29:58.840Z,100140.63
2017-12-13T05:32:25.587Z,100133.95
2017-12-13T05:34:52.349Z,100128.45
2017-12-13T05:37:19.100Z,100126.50
2017-12-13T05:39:45.869Z,100118.30
2017-12-13T05:42:12.632Z,100122.48
2017-12-13T05:44:39.379Z,100116.36
2017-12-13T05:47:06.107Z,100115.59
2017-12-13T05:49:32.873Z,100110.64
2017-12-13T05:51:59.627Z,100113.30
2017-12-13T05:54:26.357Z,100100.82
2017-12-13T05:56:53.832Z,100091.48
2017-12-13T05:59:21.318Z,100096.52
2017-12-13T06:01:48.810Z,100085.61
2017-12-13T06:04:15.524Z,100071.80
2017-12-13T06:06:42.280Z,100064.53
2017-12-13T06:09:09.016Z,100052.41
2017-12-13T06:11:35.758Z,100066.53
2017-12-13T06:14:02.488Z,100057.87
2017-12-13T06:16:29.774Z,100039.24
2017-12-13T06:18:56.507Z,100045.83
2017-12-13T06:21:24.175Z,100041.06
2017-12-13T06:23:51.029Z,100035.84
2017-12-13T06:26:17.771Z,100032.84
2017-12-13T06:28:44.517Z,100021.31
2017-12-13T06:31:11.288Z,100026.13
2017-12-13T06:33:38.052Z,100024.00
2017-12-13T06:36:04.807Z,100015.00
2017-12-13T06:38:31.616Z,100020.36
2017-12-13T06:40:58.388Z,100012.88
2017-12-13T06:43:25.562Z,99997.73
2017-12-13T06:45:52.315Z,99995.95
2017-12-13T06:48:19.085Z,99981.77
2017-12-13T06:50:45.816Z,99993.89
2017-12-13T06:53:13.293Z,99972.22
2017-12-13T06:55:40.056Z,99954.52
2017-12-13T06:58:06.803Z,99961.53
2017-12-13T07:00:34.283Z,99949.73
2017-12-13T07:03:01.754Z,99940.05
2017-12-13T07:05:29.240Z,99934.77
2017-12-13T07:07:56.720Z,99935.67
2017-12-13T07:10:23.475Z,99936.05
2017-12-13T07:12:50.256Z,99939.29
2017-12-13T07:15:17.002Z,99911.00
2017-12-13T07:17:43.777Z,99929.09
2017-12-13T07:20:10.584Z,99926.84
2017-12-13T07:22:37.342Z,99923.75
2017-12-13T07:25:04.084Z,99912.73
2017-12-13T07:27:30.885Z,99909.84
2017-12-13T07:29:57.643Z,99904.09
2017-12-13T07:32:25.137Z,99914.41
2017-12-13T07:34:51.874Z,99893.48
2017-12-13T07:37:19.351Z,99899.23
2017-12-13T07:39:46.848Z,99896.50
2017-12-13T07:42:13.589Z,99906.00
2017-12-13T07:44:41.062Z,99882.64
2017-12-13T07:47:08.526Z,99885.06
2017-12-13T07:49:36.024Z,99884.94
2017-12-13T07:52:02.753Z,99868.27
2017-12-13T07:54:29.499Z,99854.70
2017-12-13T07:56:56.273Z,99867.19
2017-12-13T07:59:23.787Z,99854.25
2017-12-13T08:01:50.525Z,99852.03
2017-12-13T08:04:17.998Z,99851.45
2017-12-13T08:06:45.498Z,99846.53
2017-12-13T08:09:12.220Z,99839.78
2017-12-13T08:11:38.942Z,99834.77
2017-12-13T08:14:05.655Z,99822.45
2017-12-13T08:16:33.239Z,99814.79
2017-12-13T08:18:59.983Z,99803.15
2017-12-13T08:21:27.472Z,99814.64
2017-12-13T08:23:54.229Z,99805.05
2017-12-13T08:26:20.958Z,99791.12
2017-12-13T08:28:47.735Z,99779.17
2017-12-13T08:31:15.228Z,99770.89
2017-12-13T08:33:42.052Z,99774.21
2017-12-13T08:36:08.809Z,99758.56
2017-12-13T08:38:35.600Z,99763.53
2017-12-13T08:41:03.133Z,99749.39
2017-12-13T08:43:29.954Z,99734.51
2017-12-13T08:45:56.695Z,99742.78
2017-12-13T08:48:24.214Z,99743.00
2017-12-13T08:50:51.013Z,99735.78
2017-12-13T08:53:18.541Z,99736.36
2017-12-13T08:55:45.324Z,99727.98
2017-12-13T08:58:12.085Z,99725.22
2017-12-13T09:00:38.875Z,99734.38
2017-12-13T09:03:06.376Z,99721.86
2017-12-13T09:05:33.150Z,99724.99
2017-12-13T09:07:59.938Z,99725.53
2017-12-13T09:10:26.855Z,99728.32
2017-12-13T09:12:53.647Z,99715.59
2017-12-13T09:15:20.450Z,99703.91
2017-12-13T09:17:47.212Z,99701.11
2017-12-13T09:20:14.762Z,99685.12
2017-12-13T09:22:42.288Z,99685.89
2017-12-13T09:25:09.020Z,99680.02
2017-12-13T09:27:35.804Z,99686.61
2017-12-13T09:30:02.636Z,99666.15
2017-12-13T09:32:29.423Z,99646.14
2017-12-13T09:34:56.227Z,99656.20
2017-12-13T09:37:23.026Z,99650.13
2017-12-13T09:39:50.522Z,99638.53
2017-12-13T09:42:17.307Z,99638.53
2017-12-13T09:44:44.067Z,99629.38
2017-12-13T09:47:10.862Z,99615.02
2017-12-13T09:49:37.682Z,99612.41
2017-12-13T09:52:04.486Z,99601.67
2017-12-13T09:54:32.027Z,99596.02
2017-12-13T09:56:58.840Z,99601.60
2017-12-13T09:59:26.372Z,99594.80
2017-12-13T10:01:53.175Z,99599.72
2017-12-13T10:04:20.721Z,99587.02
2017-12-13T10:06:47.508Z,99585.52
2017-12-13T10:09:14.261Z,99579.53
2017-12-13T10:11:41.049Z,99566.89
2017-12-13T10:14:07.825Z,99560.03
2017-12-13T10:16:34.576Z,99542.86
2017-12-13T10:19:01.366Z,99546.16
2017-12-13T10:21:28.104Z,99531.72
2017-12-13T10:23:54.881Z,99532.47
2017-12-13T10:26:21.625Z,99516.52
2017-12-13T10:28:48.366Z,99504.42
2017-12-13T10:31:15.104Z,99498.79
2017-12-13T10:33:42.598Z,99489.13
2017-12-13T10:36:09.358Z,99473.16
2017-12-13T10:38:36.112Z,99477.89
2017-12-13T10:41:03.627Z,99450.96
2017-12-13T10:43:30.416Z,99449.56
2017-12-13T10:45:57.145Z,99447.68
2017-12-13T10:48:23.884Z,99441.75
2017-12-13T10:50:50.667Z,99427.18
2017-12-13T10:53:17.451Z,99422.66
2017-12-13T10:55:44.302Z,99418.07
2017-12-13T10:58:11.115Z,99421.36
2017-12-13T11:00:37.963Z,99404.04
2017-12-13T11:03:05.522Z,99402.60
2017-12-13T11:05:32.374Z,99396.91
2017-12-13T11:07:59.156Z,99388.22
2017-12-13T11:10:26.656Z,99389.44
2017-12-13T11:12:53.483Z,99387.77
2017-12-13T11:15:20.251Z,99381.08
2017-12-13T11:17:47.758Z,99374.95
2017-12-13T11:20:14.524Z,99355.37
2017-12-13T11:22:41.342Z,99355.23
2017-12-13T11:25:08.108Z,99332.21
2017-12-13T11:27:35.607Z,99333.03
2017-12-13T11:30:02.363Z,99318.39
2017-12-13T11:32:29.141Z,99315.44
2017-12-13T11:34:56.651Z,99306.11
2017-12-13T11:37:23.420Z,99295.39
2017-12-13T11:39:50.192Z,99292.36
2017-12-13T11:42:17.735Z,99278.67
2017-12-13T11:44:44.525Z,99270.89
2017-12-13T11:47:11.278Z,99260.50
2017-12-13T11:49:38.052Z,99263.13
2017-12-13T11:52:05.561Z,99253.97
2017-12-13T11:54:38.410Z,99243.09
2017-12-13T11:57:05.225Z,99233.37
2017-12-13T11:59:32.742Z,99241.08
2017-12-13T12:01:59.549Z,99225.08
2017-12-13T12:04:26.313Z,99228.47
2017-12-13T12:06:53.078Z,99218.37
2017-12-13T12:09:19.881Z,99226.63
2017-12-13T12:11:46.639Z,99211.05
2017-12-13T12:14:13.403Z,99205.23
2017-12-13T12:16:40.191Z,99193.66
2017-12-13T12:19:07.715Z,99190.52
2017-12-13T12:21:34.508Z,99184.47
2017-12-13T12:24:01.275Z,99181.03
2017-12-13T12:26:28.794Z,99164.41
2017-12-13T12:28:55.591Z,99164.38
2017-12-13T12:31:22.387Z,99160.48
2017-12-13T12:33:49.933Z,99157.31
2017-12-13T12:36:16.737Z,99159.47
2017-12-13T12:38:43.486Z,99150.19
2017-12-13T12:41:10.244Z,99137.95
2017-12-13T12:43:36.967Z,99127.98
2017-12-13T12:46:03.748Z,99112.31
2017-12-13T12:48:30.507Z,99121.67
2017-12-13T12:50:58.004Z,99116.38
2017-12-13T12:53:24.765Z,99111.93
2017-12-13T12:55:51.496Z,99110.48
2017-12-13T12:58:18.224Z,99100.92
2017-12-13T13:00:45.031Z,99110.32
2017-12-13T13:03:12.500Z,99092.00
2017-12-13T13:05:39.988Z,99087.89
2017-12-13T13:08:06.783Z,99085.98
2017-12-13T13:10:33.551Z,99087.19
2017-12-13T13:13:00.311Z,99081.02
2017-12-13T13:15:27.140Z,99080.48
2017-12-13T13:17:53.959Z,99061.82
2017-12-13T13:20:20.778Z,99084.38
2017-12-13T13:22:47.579Z,99068.95
2017-12-13T13:25:14.421Z,99061.73
2017-12-13T13:27:41.194Z,99067.75
2017-12-13T13:30:08.044Z,99057.73
2017-12-13T13:32:34.839Z,99071.20
2017-12-13T13:35:02.386Z,99062.84
2017-12-13T13:37:29.177Z,99065.91
2017-12-13T13:39:56.708Z,99045.94
2017-12-13T13:42:23.512Z,99056.94
2017-12-13T13:44:51.004Z,99050.74
2017-12-13T13:47:17.805Z,99051.65
2017-12-13T13:49:44.566Z,99056.20
2017-12-13T13:52:11.372Z,99050.55
2017-12-13T13:54:38.883Z,99046.77
2017-12-13T13:57:05.650Z,99048.53
2017-12-13T13:59:32.419Z,99055.17
2017-12-13T14:01:59.196Z,99053.41
2017-12-13T14:04:25.952Z,99065.09
2017-12-13T14:06:52.799Z,99045.34
2017-12-13T14:09:19.760Z,99042.28
2017-12-13T14:11:46.627Z,99043.05
2017-12-13T14:14:13.414Z,99050.34
2017-12-13T14:16:40.205Z,99044.84
2017-12-13T14:19:07.000Z,99053.07
2017-12-13T14:21:33.811Z,99042.59
2017-12-13T14:24:01.352Z,99041.91
2017-12-13T14:26:28.124Z,99047.76
2017-12-13T14:28:55.371Z,99039.61
2017-12-13T14:31:22.172Z,99032.25
2017-12-13T14:33:49.666Z,99043.06
2017-12-13T14:36:16.433Z,99047.49
2017-12-13T14:38:43.214Z,99046.55
2017-12-13T14:41:10.017Z,99051.19
2017-12-13T14:43:36.775Z,99045.42
2017-12-13T14:46:03.552Z,99056.35
2017-12-13T14:48:31.049Z,99048.09
2017-12-13T14:50:57.820Z,99048.30
2017-12-13T14:53:24.622Z,99039.09
2017-12-13T14:55:51.355Z,99041.86
2017-12-13T14:58:18.119Z,99040.09
2017-12-13T15:00:44.860Z,99036.14
2017-12-13T15:03:11.645Z,99038.41
2017-12-13T15:05:38.411Z,99034.47
2017-12-13T15:08:05.140Z,99032.37
2017-12-13T15:10:31.936Z,99026.99
2017-12-13T15:13:00.000Z,99027.67
2017-12-13T15:15:26.741Z,99017.66
2017-12-13T15:17:53.495Z,99010.54
2017-12-13T15:20:20.267Z,99012.52
2017-12-13T15:22:53.480Z,99012.41
2017-12-13T15:25:28.114Z,99010.99
2017-12-13T15:30:44.337Z,98998.98
2017-12-13T15:33:17.342Z,98993.75
2017-12-13T15:35:50.291Z,98987.42
2017-12-13T15:38:26.256Z,98985.28
2017-12-13T15:43:53.250Z,98975.15
2017-12-13T15:46:20.241Z,98961.20
2017-12-13T15:48:47.036Z,98949.45
2017-12-13T15:51:13.832Z,98949.33
2017-12-13T15:53:40.583Z,98944.20
2017-12-13T15:56:07.387Z,98945.08
2017-12-13T15:58:34.263Z,98942.37
2017-12-13T16:01:01.032Z,98938.80
2017-12-13T16:03:27.931Z,98934.91
2017-12-13T16:05:54.757Z,98926.16
2017-12-13T16:08:21.584Z,98919.71
2017-12-13T16:10:49.120Z,98923.42
2017-12-13T16:13:16.002Z,98917.86
2017-12-13T16:15:42.798Z,98917.77
2017-12-13T16:18:09.555Z,98910.36
2017-12-13T16:20:36.427Z,98911.69
2017-12-13T16:23:03.278Z,98904.28
2017-12-13T16:25:30.133Z,98899.30
2017-12-13T16:27:56.955Z,98897.66
2017-12-13T16:30:23.733Z,98891.16
2017-12-13T16:32:51.240Z,98881.13
2017-12-13T16:35:18.013Z,98867.25
2017-12-13T16:37:44.853Z,98865.36
2017-12-13T16:40:11.614Z,98859.77
2017-12-13T16:42:38.821Z,98855.73
2017-12-13T16:45:05.667Z,98846.16
2017-12-13T16:47:32.589Z,98852.72
2017-12-13T16:49:59.375Z,98840.94
2017-12-13T16:52:26.171Z,98832.22
2017-12-13T16:54:53.002Z,98829.42
2017-12-13T16:57:19.846Z,98817.55
2017-12-13T16:59:46.745Z,98807.22
2017-12-13T17:02:13.527Z,98788.25
2017-12-13T17:04:40.430Z,98785.86
2017-12-13T17:07:07.478Z,98780.51
2017-12-13T17:09:35.248Z,98776.92
2017-12-13T17:12:02.287Z,98774.77
2017-12-13T17:14:29.260Z,98770.00
2017-12-13T17:16:56.632Z,98765.16
2017-12-13T17:19:23.548Z,98769.31
2017-12-13T17:21:50.395Z,98764.61
2017-12-13T17:24:17.236Z,98760.13
2017-12-13T17:26:44.070Z,98748.77
2017-12-13T17:29:10.867Z,98737.34
2017-12-13T17:31:38.436Z,98721.42
2017-12-13T17:34:05.255Z,98717.80
2017-12-13T17:36:32.044Z,98705.06
2017-12-13T17:38:58.817Z,98703.98
2017-12-13T17:41:26.124Z,98682.23
2017-12-13T17:43:53.085Z,98683.17
2017-12-13T17:46:20.758Z,98669.14
2017-12-13T17:48:47.671Z,98655.45
2017-12-13T17:51:14.661Z,98650.94
2017-12-13T17:53:41.523Z,98650.52
2017-12-13T17:56:09.466Z,98635.91
2017-12-13T17:58:36.351Z,98626.67
2017-12-13T18:01:03.745Z,98625.41
2017-12-13T18:03:30.785Z,98611.16
2017-12-13T18:05:58.275Z,98603.98
2017-12-13T18:08:25.212Z,98593.95
2017-12-13T18:10:52.304Z,98592.91
2017-12-13T18:13:21.144Z,98583.02
2017-12-13T18:15:48.446Z,98584.78
2017-12-13T18:18:16.342Z,98562.87
2017-12-13T18:20:44.891Z,98544.52
2017-12-13T18:23:13.348Z,98538.14
2017-12-13T18:25:42.146Z,98537.20
2017-12-13T18:28:09.217Z,98523.67
2017-12-13T18:30:37.859Z,98510.50
2017-12-13T18:33:06.792Z,98500.09
2017-12-13T18:35:35.735Z,98498.87
2017-12-13T18:38:03.708Z,98478.11
2017-12-13T18:40:32.493Z,98494.44
2017-12-13T18:43:00.452Z,98480.30
2017-12-13T18:45:28.335Z,98464.34
2017-12-13T18:47:55.708Z,98463.54
2017-12-13T18:50:24.259Z,98459.27
2017-12-13T18:52:52.622Z,98443.16
2017-12-13T18:55:21.528Z,98423.59
2017-12-13T18:57:50.307Z,98416.25
2017-12-13T19:00:35.782Z,98413.92
2017-12-13T19:03:04.726Z,98410.78
2017-12-13T19:05:33.171Z,98401.78
2017-12-13T19:08:01.912Z,98387.79
2017-12-13T19:10:30.291Z,98383.34
2017-12-13T19:12:58.912Z,98370.27
2017-12-13T19:15:27.433Z,98349.47
2017-12-13T19:17:56.742Z,98355.97
2017-12-13T19:20:24.509Z,98339.97
2017-12-13T19:22:53.399Z,98321.31
2017-12-13T19:25:22.278Z,98310.22
2017-12-13T19:27:51.252Z,98310.97
2017-12-13T19:30:20.565Z,98294.97
2017-12-13T19:32:49.293Z,98269.67
2017-12-13T19:35:18.185Z,98264.48
2017-12-13T19:37:46.701Z,98261.58
2017-12-13T19:40:15.661Z,98246.13
2017-12-13T19:42:44.762Z,98232.25
2017-12-13T19:45:13.815Z,98231.15
2017-12-13T19:47:42.784Z,98225.86
2017-12-13T19:50:11.765Z,98220.95
2017-12-13T19:52:40.738Z,98219.38
2017-12-13T19:55:09.775Z,98217.97
2017-12-13T19:57:38.726Z,98227.96
2017-12-13T20:00:07.858Z,98196.20
2017-12-13T20:02:37.044Z,98217.17
2017-12-13T20:05:06.682Z,98207.78
2017-12-13T20:07:35.700Z,98212.37
2017-12-13T20:10:05.736Z,98194.17
2017-12-13T20:12:36.511Z,98175.91
2017-12-13T20:15:17.185Z,98170.11
2017-12-13T20:17:46.268Z,98162.54
2017-12-13T20:20:15.419Z,98157.47
2017-12-13T20:22:44.768Z,98150.69
2017-12-13T20:25:13.772Z,98128.09
2017-12-13T20:27:43.672Z,98110.52
2017-12-13T20:30:11.622Z,98098.52
2017-12-13T20:32:40.554Z,98086.45
2017-12-13T20:35:09.520Z,98075.80
2017-12-13T20:37:39.918Z,98050.31
2017-12-13T20:40:10.442Z,98047.00
2017-12-13T20:42:40.395Z,98032.92
2017-12-13T20:45:09.362Z,98032.88
2017-12-13T20:47:38.391Z,98022.69
2017-12-13T20:50:16.134Z,98019.87
2017-12-13T20:52:48.877Z,98018.11
2017-12-13T20:55:17.933Z,98002.27
2017-12-13T20:57:48.686Z,97975.65
2017-12-13T21:00:17.861Z,97968.86
2017-12-13T21:02:46.732Z,97954.12
2017-12-13T21:05:16.935Z,97953.05
2017-12-13T21:07:47.214Z,97924.55
2017-12-13T21:10:17.011Z,97933.59
2017-12-13T21:12:46.246Z,97925.88
2017-12-13T21:15:15.756Z,97938.66
2017-12-13T21:17:48.190Z,97936.39
2017-12-13T21:20:17.309Z,97905.19
2017-12-13T21:22:48.242Z,97909.08
2017-12-13T21:25:18.399Z,97907.06
2017-12-13T21:27:47.282Z,97896.31
2017-12-13T21:30:15.733Z,97915.23
2017-12-13T21:32:43.663Z,97919.82
2017-12-13T21:35:12.652Z,97924.45
2017-12-13T21:37:39.897Z,97917.38
2017-12-13T21:40:09.984Z,97951.77
2017-12-13T21:42:39.173Z,97937.68
2017-12-13T21:45:07.936Z,97940.69
2017-12-13T21:47:36.941Z,97949.13
2017-12-13T21:50:19.999Z,97965.17
2017-12-13T21:52:49.637Z,97917.23
2017-12-13T21:55:19.325Z,97933.17
2017-12-13T21:57:47.487Z,97960.86
2017-12-13T22:00:15.259Z,97970.03
2017-12-13T22:02:42.313Z,97985.38
2017-12-13T22:05:10.826Z,97957.77
2017-12-13T22:07:37.931Z,97961.05
2017-12-13T22:10:04.830Z,97961.85
2017-12-13T22:12:31.716Z,97984.11
2017-12-13T22:14:59.409Z,97988.40
2017-12-13T22:17:26.345Z,97992.09
2017-12-13T22:19:53.209Z,97984.19
2017-12-13T22:22:26.199Z,98002.13
2017-12-13T22:24:53.511Z,98007.88
2017-12-13T22:27:20.488Z,98002.26
2017-12-13T22:29:47.906Z,98021.08
2017-12-13T22:32:15.514Z,98028.38
2017-12-13T22:34:43.116Z,98033.25
2017-12-13T22:37:10.012Z,98043.28
2017-12-13T22:39:36.959Z,98048.89
2017-12-13T22:42:03.857Z,98051.92
2017-12-13T22:44:30.693Z,98065.08
2017-12-13T22:46:57.631Z,98071.31
2017-12-13T22:49:24.468Z,98074.30
2017-12-13T22:51:54.100Z,98072.63
2017-12-13T22:54:21.663Z,98087.81
2017-12-13T22:56:48.527Z,98089.28
2017-12-13T22:59:16.105Z,98081.89
2017-12-13T23:01:43.694Z,98103.41
2017-12-13T23:04:11.335Z,98100.88
2017-12-13T23:06:38.226Z,98088.70
2017-12-13T23:09:05.781Z,98088.94
2017-12-13T23:11:32.721Z,98111.11
2017-12-13T23:13:59.723Z,98102.99
2017-12-13T23:16:26.586Z,98091.07
2017-12-13T23:18:54.264Z,98101.68
2017-12-13T23:21:21.249Z,98102.77
2017-12-13T23:23:48.846Z,98097.52
2017-12-13T23:26:15.754Z,98107.70
2017-12-13T23:28:43.401Z,98111.50
2017-12-13T23:31:12.246Z,98113.12
2017-12-13T23:33:40.080Z,98110.89
2017-12-13T23:36:06.963Z,98112.48
2017-12-13T23:38:33.794Z,98107.72
2017-12-13T23:41:00.583Z,98117.98
2017-12-13T23:43:27.429Z,98122.70
2017-12-13T23:45:54.307Z,98104.89
2017-12-13T23:48:21.151Z,98104.95
2017-12-13T23:50:47.996Z,98097.48
2017-12-13T23:53:15.608Z,98091.58
2017-12-13T23:55:42.438Z,98099.89
2017-12-13T23:58:09.267Z,98095.81
